^^
MeteoGriva-Weather Station Historical Data
Daily Summary for April 3, 2020 Units:  Metric    English   Both
Daily Weekly Monthly Yearly Custom
  High: Low: Average:
Temperature: 20.9 °C 12 °C 15.6 °C
Dew Point: 17.2 °C 10.4 °C 13.5 °C
Humidity: 99% 75.8% 88%
Wind Speed: 2.5km/h 0km/h 0.1km/h
Wind Gust: 12.2km/h - -
Wind- - South
Pressure: 1019.0 hPa 1014.9 hPa -
Precipitation: 0.2 mm    
Historical Graphs
 
 
Tabular Data for April 3, 2020
Time Temperature Dew Point Pressure Wind Wind Speed Wind Gust Humidity Rainfall Rate (Hourly) solar
00:04 13.7 °C 11.2 °C 1019.0 hPa Calm     85.1% 0.0 mm 0 W/m2
00:09 13.7 °C 11.5 °C 1019.0 hPa Calm     86.8% 0.0 mm 0 W/m2
00:14 13.5 °C 11.4 °C 1019.0 hPa Calm     87% 0.0 mm 0 W/m2
00:19 13.3 °C 11.2 °C 1018.6 hPa Calm     87% 0.0 mm 0 W/m2
00:24 13.3 °C 11 °C 1019.0 hPa Calm     86.2% 0.0 mm 0 W/m2
00:29 13.3 °C 10.9 °C 1019.0 hPa Calm     85.3% 0.0 mm 0 W/m2
00:34 13.4 °C 10.8 °C 1018.6 hPa Calm     84.4% 0.0 mm 0 W/m2
00:39 13.8 °C 11.1 °C 1019.0 hPa Calm     84% 0.0 mm 0 W/m2
00:44 13.8 °C 11.1 °C 1018.6 hPa Calm     84% 0.0 mm 0 W/m2
00:49 13.7 °C 11 °C 1018.6 hPa Calm     83.8% 0.0 mm 0 W/m2
00:54 13.8 °C 11.1 °C 1018.6 hPa Calm     84% 0.0 mm 0 W/m2
00:59 13.8 °C 11.1 °C 1018.6 hPa Calm     84% 0.0 mm 0 W/m2
01:04 13.8 °C 10.8 °C 1018.3 hPa Calm     82% 0.0 mm 0 W/m2
01:09 13.8 °C 10.6 °C 1018.3 hPa Calm     81.1% 0.0 mm 0 W/m2
01:14 13.9 °C 10.6 °C 1018.3 hPa Calm     80.6% 0.0 mm 0 W/m2
01:19 14.1 °C 10.6 °C 1018.3 hPa Calm     79.7% 0.0 mm 0 W/m2
01:24 14 °C 10.8 °C 1018.3 hPa Calm     80.8% 0.0 mm 0 W/m2
01:29 14 °C 10.6 °C 1018.0 hPa Calm     79.9% 0.0 mm 0 W/m2
01:34 14 °C 10.4 °C 1018.0 hPa Calm     79.1% 0.0 mm 0 W/m2
01:39 13.9 °C 10.7 °C 1018.3 hPa Calm     80.8% 0.0 mm 0 W/m2
01:44 13.9 °C 10.7 °C 1018.3 hPa Calm     81% 0.0 mm 0 W/m2
01:49 13.8 °C 10.6 °C 1018.3 hPa Calm     81% 0.0 mm 0 W/m2
01:54 13.8 °C 10.5 °C 1018.3 hPa Calm     80.2% 0.0 mm 0 W/m2
01:59 14 °C 10.6 °C 1018.0 hPa Calm     80% 0.0 mm 0 W/m2
02:04 14 °C 10.6 °C 1018.0 hPa Calm     80.2% 0.0 mm 0 W/m2
02:09 14 °C 11 °C 1018.0 hPa Calm     82% 0.0 mm 0 W/m2
02:14 13.8 °C 11.1 °C 1018.0 hPa Calm     83.2% 0.0 mm 0 W/m2
02:19 13.5 °C 10.6 °C 1018.0 hPa Calm     82.3% 0.0 mm 0 W/m2
02:24 13.6 °C 10.7 °C 1018.3 hPa Calm     82.8% 0.0 mm 0 W/m2
02:29 13.5 °C 10.7 °C 1018.3 hPa Calm     83% 0.0 mm 0 W/m2
02:34 13.5 °C 10.7 °C 1018.3 hPa Calm     83.2% 0.0 mm 0 W/m2
02:39 13.6 °C 10.6 °C 1018.0 hPa Calm     82.1% 0.0 mm 0 W/m2
02:44 13.6 °C 10.6 °C 1018.0 hPa Calm     82% 0.0 mm 0 W/m2
02:49 13.6 °C 10.6 °C 1018.0 hPa Calm     82% 0.0 mm 0 W/m2
02:54 13.7 °C 10.6 °C 1018.0 hPa Calm     81.9% 0.0 mm 0 W/m2
02:59 14.1 °C 11 °C 1018.0 hPa Calm     81.6% 0.0 mm 0 W/m2
03:04 14 °C 11.2 °C 1017.6 hPa Calm     83% 0.0 mm 0 W/m2
03:09 14 °C 11.1 °C 1017.6 hPa Calm     82.4% 0.0 mm 0 W/m2
03:14 13.9 °C 10.9 °C 1018.0 hPa Calm     82% 0.0 mm 0 W/m2
03:19 14.1 °C 10.9 °C 1017.6 hPa Calm     81.3% 0.0 mm 0 W/m2
03:24 14 °C 11.1 °C 1018.0 hPa Calm     82.6% 0.0 mm 0 W/m2
03:29 14 °C 11 °C 1017.6 hPa Calm     81.9% 0.0 mm 0 W/m2
03:34 14 °C 10.6 °C 1017.6 hPa Calm     80.2% 0.0 mm 0 W/m2
03:39 14.1 °C 10.7 °C 1017.3 hPa Calm     80.1% 0.0 mm 0 W/m2
03:44 14.1 °C 10.7 °C 1017.3 hPa Calm     80% 0.0 mm 0 W/m2
03:49 14.2 °C 10.8 °C 1017.3 hPa Calm     79.9% 0.0 mm 0 W/m2
03:54 14.2 °C 10.8 °C 1016.9 hPa Calm     80.3% 0.0 mm 0 W/m2
03:59 14.1 °C 11 °C 1016.9 hPa Calm     81.5% 0.0 mm 0 W/m2
04:04 14.1 °C 11.1 °C 1016.9 hPa Calm     82% 0.0 mm 0 W/m2
04:09 14.1 °C 11.1 °C 1016.9 hPa Calm     82% 0.0 mm 0 W/m2
04:14 14.1 °C 11.2 °C 1016.9 hPa Calm     82.4% 0.0 mm 0 W/m2
04:19 13.8 °C 11 °C 1016.9 hPa Calm     83.8% 0.0 mm 0 W/m2
04:24 13.7 °C 11.2 °C 1017.3 hPa Calm     84.9% 0.0 mm 0 W/m2
04:29 13.7 °C 11.3 °C 1017.3 hPa Calm     85.3% 0.0 mm 0 W/m2
04:34 13.6 °C 11.1 °C 1017.3 hPa Calm     85.1% 0.0 mm 0 W/m2
04:39 13.4 °C 11.1 °C 1017.3 hPa Calm     86% 0.0 mm 0 W/m2
04:44 13.3 °C 11 °C 1017.3 hPa Calm     86% 0.0 mm 0 W/m2
04:49 13.2 °C 11 °C 1017.3 hPa Calm     86.3% 0.0 mm 0 W/m2
04:54 13.2 °C 11.1 °C 1017.3 hPa Calm     86.9% 0.0 mm 0 W/m2
04:59 13.1 °C 11 °C 1017.3 hPa Calm     86.8% 0.0 mm 0 W/m2
05:04 13 °C 10.9 °C 1016.9 hPa Calm     87% 0.0 mm 0 W/m2
05:09 13 °C 10.9 °C 1016.9 hPa Calm     87% 0.0 mm 0 W/m2
05:14 13 °C 11 °C 1016.9 hPa Calm     87.7% 0.0 mm 0 W/m2
05:19 12.9 °C 11.1 °C 1016.9 hPa Calm     88.6% 0.0 mm 0 W/m2
05:24 12.9 °C 11.1 °C 1016.9 hPa Calm     88.8% 0.0 mm 0 W/m2
05:29 12.9 °C 11 °C 1017.3 hPa Calm     87.9% 0.0 mm 0 W/m2
05:34 12.9 °C 10.8 °C 1017.3 hPa Calm     87% 0.0 mm 0 W/m2
05:39 12.9 °C 11 °C 1017.3 hPa Calm     87.9% 0.0 mm 0 W/m2
05:44 12.9 °C 11.1 °C 1017.6 hPa Calm     89% 0.0 mm 0 W/m2
05:49 12.9 °C 11.1 °C 1017.6 hPa Calm     89.1% 0.0 mm 0 W/m2
05:54 12.9 °C 11.1 °C 1017.6 hPa Calm     89.2% 0.0 mm 0 W/m2
05:59 12.8 °C 11.1 °C 1018.0 hPa Calm     90% 0.0 mm 0 W/m2
06:04 12.7 °C 11.2 °C 1018.0 hPa Calm     90.6% 0.0 mm 0 W/m2
06:09 12.6 °C 11.2 °C 1018.0 hPa Calm     91% 0.0 mm 0 W/m2
06:14 12.6 °C 11.2 °C 1018.3 hPa NW 0.4 km/h 4 km/h 91.1% 0.0 mm 0 W/m2
06:19 12.6 °C 11.5 °C 1018.3 hPa NW 0.3 km/h 4 km/h 93% 0.0 mm 0 W/m2
06:24 12.5 °C 11.7 °C 1018.3 hPa Calm   4 km/h 94.8% 0.0 mm 0 W/m2
06:29 12.5 °C 11.9 °C 1018.0 hPa Calm     95.9% 0.0 mm 0 W/m2
06:34 12.4 °C 11.9 °C 1018.0 hPa Calm     96.3% 0.0 mm 0 W/m2
06:39 12.1 °C 11.9 °C 1018.0 hPa Calm     99% 0.0 mm 0 W/m2
06:44 12 °C 11.8 °C 1018.0 hPa Calm     99% 0.0 mm 0 W/m2
06:49 12 °C 11.8 °C 1018.0 hPa Calm     98.9% 0.0 mm 0 W/m2
06:54 12 °C 11.8 °C 1018.0 hPa Calm   4 km/h 99% 0.0 mm 0 W/m2
06:59 12.1 °C 11.8 °C 1018.0 hPa SW 0.2 km/h 4 km/h 98.7% 0.0 mm 0 W/m2
07:04 12.2 °C 11.8 °C 1018.0 hPa Calm     97.9% 1.8 mm 0 W/m2
07:09 12.2 °C 12 °C 1018.0 hPa Calm     99% 1.8 mm 0 W/m2
07:14 12.1 °C 11.9 °C 1018.0 hPa Calm     99% 1.8 mm 0 W/m2
07:19 12 °C 11.8 °C 1018.0 hPa Calm     99% 0.0 mm 0 W/m2
07:24 12.1 °C 11.8 °C 1018.0 hPa Calm     98.6% 0.0 mm 0 W/m2
07:29 12.1 °C 11.9 °C 1018.0 hPa Calm     98.8% 0.0 mm 2 W/m2
07:34 12.2 °C 11.9 °C 1018.0 hPa Calm     99% 0.0 mm 2 W/m2
07:39 12.5 °C 12.1 °C 1018.3 hPa Calm     97.9% 0.0 mm 4 W/m2
07:44 12.6 °C 12.4 °C 1018.3 hPa Calm     99% 0.0 mm 7 W/m2
07:49 12.6 °C 12.4 °C 1018.3 hPa Calm     99% 0.0 mm 10 W/m2
07:54 12.6 °C 12.4 °C 1018.3 hPa Calm     99% 0.0 mm 14 W/m2
07:59 12.8 °C 12.6 °C 1018.6 hPa Calm     99% 0.0 mm 21 W/m2
08:04 12.8 °C 12.6 °C 1018.6 hPa Calm     99% 0.0 mm 26 W/m2
08:09 12.8 °C 12.6 °C 1018.6 hPa Calm     99% 0.0 mm 30 W/m2
08:14 12.8 °C 12.6 °C 1019.0 hPa Calm     99% 0.0 mm 31 W/m2
08:19 12.9 °C 12.7 °C 1018.6 hPa Calm     99% 0.0 mm 28 W/m2
08:24 13 °C 12.8 °C 1018.6 hPa Calm     99% 0.0 mm 27 W/m2
08:29 13 °C 12.8 °C 1018.6 hPa Calm     99% 0.0 mm 38 W/m2
08:34 13 °C 12.8 °C 1018.6 hPa Calm     99% 0.0 mm 50 W/m2
08:39 13.1 °C 12.9 °C 1018.3 hPa Calm     99% 0.0 mm 45 W/m2
08:44 13.3 °C 13.1 °C 1018.6 hPa Calm     99% 0.0 mm 43 W/m2
08:49 13.3 °C 13.1 °C 1018.3 hPa Calm     99% 0.0 mm 49 W/m2
08:54 13.3 °C 13.1 °C 1018.3 hPa Calm     99% 0.0 mm 60 W/m2
08:59 13.4 °C 13.2 °C 1018.3 hPa Calm     99% 0.0 mm 61 W/m2
09:04 13.4 °C 13.2 °C 1018.6 hPa Calm     99% 0.0 mm 68 W/m2
09:09 13.5 °C 13.3 °C 1018.6 hPa Calm     99% 0.0 mm 70 W/m2
09:14 13.6 °C 13.3 °C 1018.3 hPa Calm     98.6% 0.0 mm 70 W/m2
09:19 13.6 °C 13.4 °C 1018.6 hPa North 0.8 km/h 7.9 km/h 98.9% 0.0 mm 73 W/m2
09:24 13.6 °C 13.4 °C 1018.6 hPa North 0.5 km/h 7.9 km/h 99% 0.0 mm 74 W/m2
09:29 13.5 °C 13.3 °C 1018.6 hPa North 2.5 km/h 7.9 km/h 99% 0.0 mm 80 W/m2
09:34 13.3 °C 13.1 °C 1018.6 hPa North 0.3 km/h 7.9 km/h 99% 0.0 mm 84 W/m2
09:39 13 °C 12.8 °C 1018.3 hPa Calm     99% 0.0 mm 84 W/m2
09:44 12.8 °C 12.6 °C 1018.3 hPa Calm     99% 0.0 mm 81 W/m2
09:49 12.8 °C 12.6 °C 1018.6 hPa NNE 0.2 km/h 4 km/h 99% 0.0 mm 76 W/m2
09:54 12.7 °C 12.5 °C 1018.3 hPa Calm     99% 0.0 mm 82 W/m2
09:59 12.8 °C 12.7 °C 1018.3 hPa Calm     99% 0.0 mm 98 W/m2
10:04 13 °C 12.8 °C 1018.3 hPa Calm     99% 0.0 mm 111 W/m2
10:09 13 °C 12.8 °C 1018.3 hPa NNE 0.7 km/h 7.9 km/h 99% 0.0 mm 119 W/m2
10:14 13 °C 12.8 °C 1018.3 hPa North 2.2 km/h 7.9 km/h 99% 0.0 mm 125 W/m2
10:19 12.9 °C 12.7 °C 1018.3 hPa North 1.2 km/h 7.9 km/h 99% 0.0 mm 126 W/m2
10:24 12.7 °C 12.5 °C 1018.3 hPa North 0.4 km/h 7.9 km/h 99% 0.0 mm 128 W/m2
10:29 12.7 °C 12.5 °C 1018.3 hPa Calm   4 km/h 99% 0.0 mm 129 W/m2
10:34 12.7 °C 12.5 °C 1018.6 hPa Calm     99% 0.0 mm 128 W/m2
10:39 12.7 °C 12.5 °C 1018.3 hPa Calm     99% 0.0 mm 127 W/m2
10:44 12.8 °C 12.6 °C 1018.3 hPa Calm   7.9 km/h 99% 0.0 mm 129 W/m2
10:49 12.8 °C 12.6 °C 1018.3 hPa NNE 0.5 km/h 7.9 km/h 99% 0.0 mm 138 W/m2
10:54 12.8 °C 12.7 °C 1018.3 hPa North 0.4 km/h 7.9 km/h 99% 0.0 mm 138 W/m2
10:59 13 °C 12.8 °C 1018.0 hPa North 0.3 km/h 4 km/h 99% 0.0 mm 142 W/m2
11:04 13.7 °C 13.5 °C 1018.0 hPa Calm   4 km/h 99% 0.0 mm 165 W/m2
11:09 13.8 °C 13.6 °C 1018.0 hPa Calm     99% 0.0 mm 138 W/m2
11:14 13.9 °C 13.7 °C 1018.0 hPa Calm     99% 0.0 mm 131 W/m2
11:19 14 °C 13.8 °C 1018.0 hPa Calm     99% 0.0 mm 131 W/m2
11:24 14.2 °C 14 °C 1017.6 hPa Calm     99% 0.0 mm 167 W/m2
11:29 14.3 °C 14.1 °C 1017.6 hPa Calm     99% 0.0 mm 234 W/m2
11:34 14.6 °C 14.2 °C 1018.0 hPa Calm     97.6% 0.0 mm 224 W/m2
11:39 15.2 °C 14.4 °C 1017.6 hPa Calm     94.5% 0.0 mm 245 W/m2
11:44 17.2 °C 16.1 °C 1017.6 hPa Calm     92.8% 0.0 mm 233 W/m2
11:49 17.3 °C 15.7 °C 1017.6 hPa Calm     90.8% 0.0 mm 258 W/m2
11:54 17.3 °C 15.6 °C 1017.6 hPa South 0.4 km/h 4 km/h 89.7% 0.0 mm 269 W/m2
11:59 17.3 °C 15.2 °C 1017.3 hPa SSE 1 km/h 7.9 km/h 87.5% 0.0 mm 285 W/m2
12:04 17.7 °C 15.9 °C 1017.3 hPa SSE 0.2 km/h 7.9 km/h 89% 0.0 mm 296 W/m2
12:09 17.8 °C 15.6 °C 1016.9 hPa Calm   7.9 km/h 87.2% 0.0 mm 285 W/m2
12:14 17.9 °C 15.6 °C 1017.3 hPa Calm   4 km/h 86.4% 0.0 mm 352 W/m2
12:19 18.1 °C 15.4 °C 1016.9 hPa Calm   4 km/h 84.4% 0.0 mm 345 W/m2
12:24 19.2 °C 16.4 °C 1016.9 hPa Calm     84% 0.0 mm 291 W/m2
12:29 19.1 °C 16.2 °C 1016.9 hPa Calm     83.3% 0.0 mm 323 W/m2
12:34 19.1 °C 16 °C 1016.9 hPa Calm     82% 0.0 mm 326 W/m2
12:39 19.1 °C 16.3 °C 1016.6 hPa Calm   4 km/h 84.2% 0.0 mm 334 W/m2
12:44 19 °C 16 °C 1016.6 hPa SSE 0.6 km/h 7.9 km/h 83% 0.0 mm 318 W/m2
12:49 19 °C 16 °C 1016.6 hPa Calm     83.2% 0.0 mm 318 W/m2
12:54 19 °C 16 °C 1016.6 hPa SE 1.3 km/h 7.9 km/h 83% 0.0 mm 320 W/m2
12:59 19 °C 15.9 °C 1016.9 hPa Calm   7.9 km/h 82.1% 0.0 mm 320 W/m2
13:04 18.9 °C 15.9 °C 1016.9 hPa South 0.6 km/h 7.9 km/h 83% 0.0 mm 322 W/m2
13:09 19 °C 15.9 °C 1016.6 hPa Calm   7.9 km/h 82.4% 0.0 mm 308 W/m2
13:14 19 °C 16 °C 1016.6 hPa ESE 0.5 km/h 7.9 km/h 82.9% 0.0 mm 319 W/m2
13:19 18.9 °C 16.2 °C 1016.6 hPa Calm     84.4% 0.0 mm 326 W/m2
13:24 18.8 °C 15.9 °C 1016.6 hPa Calm     83.4% 0.0 mm 317 W/m2
13:29 18.9 °C 15.7 °C 1016.3 hPa Calm   4 km/h 81.4% 0.0 mm 309 W/m2
13:34 19 °C 15.8 °C 1016.3 hPa Calm   4 km/h 81.7% 0.0 mm 311 W/m2
13:39 19.2 °C 15.8 °C 1016.3 hPa South 0.4 km/h 7.9 km/h 80.7% 0.0 mm 331 W/m2
13:44 19.8 °C 16.2 °C 1016.3 hPa Calm     79.9% 0.0 mm 328 W/m2
13:49 19.9 °C 16.2 °C 1016.3 hPa Calm     79.6% 0.0 mm 335 W/m2
13:54 19.9 °C 16.1 °C 1016.3 hPa Calm     79.1% 0.0 mm 328 W/m2
13:59 19.9 °C 16.3 °C 1015.9 hPa Calm     79.9% 0.0 mm 317 W/m2
14:04 19.8 °C 16.1 °C 1015.9 hPa Calm     79% 0.0 mm 321 W/m2
14:09 19.8 °C 16 °C 1015.9 hPa Calm     78.7% 0.0 mm 359 W/m2
14:14 20 °C 16 °C 1015.6 hPa Calm     78% 0.0 mm 312 W/m2
14:19 20.1 °C 16.1 °C 1015.6 hPa Calm     77.9% 0.0 mm 288 W/m2
14:24 20.7 °C 16.7 °C 1015.6 hPa Calm     77.9% 0.0 mm 202 W/m2
14:29 20.8 °C 16.8 °C 1015.2 hPa Calm     77.9% 0.0 mm 243 W/m2
14:34 20.8 °C 16.7 °C 1015.2 hPa Calm     77.4% 0.0 mm 332 W/m2
14:39 20.9 °C 16.5 °C 1015.2 hPa Calm     75.8% 0.0 mm 317 W/m2
14:44 20.6 °C 16.4 °C 1015.2 hPa NNE 0.6 km/h 12.2 km/h 77% 0.0 mm 290 W/m2
14:49 20.5 °C 16.5 °C 1015.2 hPa Calm   4 km/h 78.1% 0.0 mm 298 W/m2
14:54 20.5 °C 16.5 °C 1015.2 hPa Calm   4 km/h 78% 0.0 mm 264 W/m2
14:59 20.6 °C 16.7 °C 1015.2 hPa Calm   4 km/h 78.7% 0.0 mm 172 W/m2
15:04 20.5 °C 16.7 °C 1015.2 hPa Calm   4 km/h 79% 0.0 mm 132 W/m2
15:09 20.5 °C 17 °C 1015.2 hPa Calm   7.9 km/h 80.4% 0.0 mm 135 W/m2
15:14 20.3 °C 17.2 °C 1015.2 hPa South 0.4 km/h 4 km/h 82% 0.0 mm 204 W/m2
15:19 20.2 °C 17.1 °C 1015.2 hPa South 0.2 km/h 7.9 km/h 82.4% 0.0 mm 197 W/m2
15:24 19.8 °C 16.7 °C 1014.9 hPa SE 1 km/h 7.9 km/h 82.4% 0.0 mm 223 W/m2
15:29 19.5 °C 16.7 °C 1015.2 hPa Calm   4 km/h 83.8% 0.0 mm 191 W/m2
15:34 19.5 °C 16.7 °C 1014.9 hPa SSW 0.6 km/h 4 km/h 84.3% 0.0 mm 128 W/m2
15:39 19.4 °C 16.6 °C 1015.2 hPa SE 0.1 km/h 4 km/h 84% 0.0 mm 110 W/m2
15:44 19.2 °C 16.5 °C 1015.2 hPa Calm     84.5% 0.0 mm 100 W/m2
15:49 19.1 °C 16.4 °C 1015.2 hPa Calm     84.7% 0.0 mm 91 W/m2
15:54 19.1 °C 16.8 °C 1015.2 hPa Calm     86.4% 0.0 mm 85 W/m2
15:59 19 °C 16.6 °C 1015.2 hPa Calm     86% 0.0 mm 81 W/m2
16:04 18.8 °C 16.4 °C 1014.9 hPa Calm     86.4% 0.0 mm 79 W/m2
16:09 18.6 °C 16.5 °C 1014.9 hPa Calm     87.3% 0.0 mm 71 W/m2
16:14 18.6 °C 16.6 °C 1015.2 hPa Calm     88% 0.0 mm 67 W/m2
16:19 18.5 °C 16.5 °C 1014.9 hPa Calm     88% 0.0 mm 63 W/m2
16:24 18.3 °C 16.3 °C 1014.9 hPa Calm     88% 0.0 mm 60 W/m2
16:29 18.1 °C 16.2 °C 1014.9 hPa Calm     88.2% 0.0 mm 54 W/m2
16:34 18.1 °C 16.1 °C 1015.2 hPa Calm     87.9% 0.0 mm 46 W/m2
16:39 18.1 °C 16.2 °C 1015.2 hPa Calm     88.8% 0.0 mm 36 W/m2
16:44 17.8 °C 16 °C 1015.2 hPa Calm     89% 0.0 mm 30 W/m2
16:49 17.6 °C 15.8 °C 1015.2 hPa Calm     88.9% 0.0 mm 25 W/m2
16:54 17.6 °C 15.8 °C 1015.2 hPa Calm     89.6% 0.0 mm 20 W/m2
16:59 17.6 °C 15.8 °C 1015.2 hPa Calm     89.4% 0.0 mm 17 W/m2
17:04 17.4 °C 15.6 °C 1015.2 hPa Calm     89.1% 0.0 mm 12 W/m2
17:09 17.2 °C 15.6 °C 1015.2 hPa Calm     90.4% 0.0 mm 7 W/m2
17:14 17.2 °C 15.5 °C 1015.2 hPa Calm     90.1% 0.0 mm 4 W/m2
17:19 17.2 °C 15.5 °C 1015.2 hPa Calm     90% 0.0 mm 0 W/m2
17:24 17.1 °C 15.3 °C 1015.2 hPa Calm     89% 0.0 mm 0 W/m2
17:29 17 °C 15.2 °C 1015.2 hPa Calm     89% 0.0 mm 0 W/m2
17:34 17 °C 15.2 °C 1015.2 hPa Calm     88.8% 0.0 mm 0 W/m2
17:39 17 °C 15.2 °C 1015.2 hPa Calm     89% 0.0 mm 0 W/m2
17:44 16.8 °C 15.1 °C 1015.2 hPa Calm     89% 0.0 mm 0 W/m2
17:49 16.8 °C 14.8 °C 1015.2 hPa Calm     88.2% 0.0 mm 0 W/m2
17:54 16.8 °C 14.8 °C 1015.2 hPa Calm   4 km/h 88.2% 0.0 mm 0 W/m2
17:59 16.8 °C 14.8 °C 1015.6 hPa Calm     87.9% 0.0 mm 0 W/m2
18:04 16.8 °C 14.7 °C 1015.2 hPa Calm     87% 0.0 mm 0 W/m2
18:09 16.9 °C 14.7 °C 1015.2 hPa Calm     87% 0.0 mm 0 W/m2
18:14 16.8 °C 14.6 °C 1015.2 hPa Calm     87.1% 0.0 mm 0 W/m2
18:19 16.8 °C 14.6 °C 1015.2 hPa Calm     87% 0.0 mm 0 W/m2
18:24 16.8 °C 14.6 °C 1015.2 hPa Calm     86.9% 0.0 mm 0 W/m2
18:29 16.9 °C 14.4 °C 1015.2 hPa Calm     85.4% 0.0 mm 0 W/m2
18:34 16.9 °C 14.4 °C 1015.2 hPa Calm     84.7% 0.0 mm 0 W/m2
18:39 17 °C 14.5 °C 1015.2 hPa Calm     85% 0.0 mm 0 W/m2
18:44 17.1 °C 14.4 °C 1015.6 hPa Calm     84% 0.0 mm 0 W/m2
18:49 17.1 °C 14.4 °C 1015.6 hPa Calm     84% 0.0 mm 0 W/m2
18:54 17.1 °C 14.5 °C 1015.9 hPa Calm     84.4% 0.0 mm 0 W/m2
18:59 17.1 °C 14.6 °C 1015.6 hPa Calm     85.2% 0.0 mm 0 W/m2
19:04 17 °C 14.6 °C 1015.6 hPa Calm     85.8% 0.0 mm 0 W/m2
19:09 16.8 °C 14.3 °C 1015.6 hPa Calm     84.7% 0.0 mm 0 W/m2
19:14 16.9 °C 14.4 °C 1015.9 hPa Calm     85% 0.0 mm 0 W/m2
19:19 16.8 °C 14.4 °C 1015.6 hPa Calm     85.7% 0.0 mm 0 W/m2
19:24 16.9 °C 14.3 °C 1015.9 hPa Calm     84.6% 0.0 mm 0 W/m2
19:29 17.1 °C 14.4 °C 1015.9 hPa Calm     84% 0.0 mm 0 W/m2
19:34 17.1 °C 14.3 °C 1015.9 hPa Calm     83.4% 0.0 mm 0 W/m2
19:39 17.1 °C 14.2 °C 1015.9 hPa Calm     83.1% 0.0 mm 0 W/m2
19:44 17.2 °C 14.1 °C 1015.9 hPa Calm     82% 0.0 mm 0 W/m2
19:49 17.3 °C 14.3 °C 1015.9 hPa Calm     82.4% 0.0 mm 0 W/m2
19:54 17.3 °C 14.2 °C 1015.9 hPa Calm     82% 0.0 mm 0 W/m2
19:59 17.3 °C 14.2 °C 1015.9 hPa Calm     82% 0.0 mm 0 W/m2
20:04 17.3 °C 14.2 °C 1015.9 hPa Calm     82% 0.0 mm 0 W/m2
20:09 17.2 °C 14.3 °C 1015.9 hPa Calm     83.1% 0.0 mm 0 W/m2
20:14 17.2 °C 14.2 °C 1016.3 hPa Calm     82.3% 0.0 mm 0 W/m2
20:19 17.1 °C 14.1 °C 1015.9 hPa Calm     82.4% 0.0 mm 0 W/m2
20:24 17.1 °C 14 °C 1016.3 hPa Calm     82.3% 0.0 mm 0 W/m2
20:29 17 °C 14.1 °C 1016.3 hPa Calm     83% 0.0 mm 0 W/m2
20:34 17 °C 14.2 °C 1016.3 hPa Calm     83.8% 0.0 mm 0 W/m2
20:39 16.9 °C 14.2 °C 1016.3 hPa Calm     83.9% 0.0 mm 0 W/m2
20:44 16.8 °C 14.2 °C 1016.3 hPa Calm     84.8% 0.0 mm 0 W/m2
20:49 16.6 °C 13.9 °C 1016.3 hPa Calm     84.2% 0.0 mm 0 W/m2
20:54 16.6 °C 14 °C 1016.3 hPa Calm     84.9% 0.0 mm 0 W/m2
20:59 16.5 °C 14.1 °C 1016.3 hPa Calm     85.8% 0.0 mm 0 W/m2
21:04 16.6 °C 14 °C 1016.3 hPa Calm     84.6% 0.0 mm 0 W/m2
21:09 16.8 °C 14.2 °C 1016.3 hPa Calm     84.7% 0.0 mm 0 W/m2
21:14 16.8 °C 14.2 °C 1016.3 hPa Calm     84.4% 0.0 mm 0 W/m2
21:19 16.8 °C 14.2 °C 1016.3 hPa Calm     84.8% 0.0 mm 0 W/m2
21:24 16.7 °C 14.2 °C 1016.3 hPa Calm     84.9% 0.0 mm 0 W/m2
21:29 16.6 °C 13.9 °C 1016.3 hPa Calm     84.2% 0.0 mm 0 W/m2
21:34 16.6 °C 14.1 °C 1016.3 hPa South 0.1 km/h 4 km/h 85% 0.0 mm 0 W/m2
21:39 16.6 °C 14.1 °C 1016.6 hPa Calm   4 km/h 85% 0.0 mm 0 W/m2
21:44 16.5 °C 14.2 °C 1016.6 hPa Calm     86.3% 0.0 mm 0 W/m2
21:49 16.3 °C 14 °C 1016.6 hPa Calm     85.8% 0.0 mm 0 W/m2
21:54 16.3 °C 14 °C 1016.6 hPa Calm     85.8% 0.0 mm 0 W/m2
21:59 16.3 °C 13.9 °C 1016.6 hPa Calm     85.2% 0.0 mm 0 W/m2
22:04 16.4 °C 14 °C 1016.6 hPa Calm     85.4% 0.0 mm 0 W/m2
22:09 16.4 °C 14 °C 1016.9 hPa Calm     85.6% 0.0 mm 0 W/m2
22:14 16.4 °C 14.1 °C 1016.9 hPa Calm     86% 0.0 mm 0 W/m2
22:19 16.4 °C 14.2 °C 1016.6 hPa Calm     86.9% 0.0 mm 0 W/m2
22:24 16.3 °C 13.9 °C 1016.6 hPa Calm     85.7% 0.0 mm 0 W/m2
22:29 16.4 °C 14.2 °C 1016.6 hPa Calm     86.4% 0.0 mm 0 W/m2
22:34 16.4 °C 14.1 °C 1016.6 hPa Calm     86% 0.0 mm 0 W/m2
22:39 16.4 °C 14.1 °C 1016.6 hPa Calm     86.3% 0.0 mm 0 W/m2
22:44 16.4 °C 14.2 °C 1016.6 hPa Calm     86.6% 0.0 mm 0 W/m2
22:49 16.2 °C 14 °C 1016.9 hPa Calm     86.7% 0.0 mm 0 W/m2
22:54 16.2 °C 14 °C 1016.6 hPa Calm     87.1% 0.0 mm 0 W/m2
22:59 16.1 °C 13.9 °C 1016.6 hPa Calm     87.1% 0.0 mm 0 W/m2
23:04 16.1 °C 14.1 °C 1016.6 hPa Calm     87.8% 0.0 mm 0 W/m2
23:09 15.8 °C 13.8 °C 1016.6 hPa Calm     88% 0.0 mm 0 W/m2
23:14 15.8 °C 13.9 °C 1016.6 hPa Calm     88.7% 0.0 mm 0 W/m2
23:19 15.8 °C 13.9 °C 1016.6 hPa Calm     88.4% 0.0 mm 0 W/m2
23:24 15.8 °C 14 °C 1016.6 hPa Calm     89% 0.0 mm 0 W/m2
23:29 15.5 °C 13.8 °C 1016.6 hPa Calm     89.4% 0.0 mm 0 W/m2
23:34 15.5 °C 14 °C 1016.9 hPa Calm     90.8% 0.0 mm 0 W/m2
23:39 15.4 °C 14.1 °C 1016.9 hPa Calm     92% 0.0 mm 0 W/m2
23:44 15.3 °C 14.2 °C 1016.9 hPa Calm     92.8% 0.0 mm 0 W/m2
23:49 15.1 °C 13.7 °C 1016.9 hPa Calm     91.7% 0.0 mm 0 W/m2
23:54 15.1 °C 13.6 °C 1016.9 hPa Calm     91% 0.0 mm 0 W/m2
23:59 15.1 °C 13.6 °C 1016.9 hPa Calm     91% 0.0 mm 0 W/m2
Juneau County Weather
Compliments of Weather Underground - 2 mb